Time;durP1;ratioP1;P1;durP2;ratioP2;P2;SDS_P1;SDS_P2;PMS_P1;PMS_P2;Temp;Humidity;BMP_temperature;BMP_pressure;BME280_temperature;BME280_humidity;BME280_pressure;Samples;Min_cycle;Max_cycle;Signal;HPM_P1;HPM_P2
2022/08/03 00:01:06;;;;;;;5.22;3.22;;;;;;;17.38;73.87;100765.38;1738998;81;20999;-86
2022/08/03 00:03:33;;;;;;;8.58;3.87;;;;;;;17.36;73.79;100773.04;1752826;81;21032;-86
2022/08/03 00:06:00;;;;;;;5.58;3.83;;;;;;;17.31;73.75;100764.02;1738963;81;21038;-86
2022/08/03 00:08:28;;;;;;;5.03;4.20;;;;;;;17.23;73.69;100763.63;1746265;81;21044;-86
2022/08/03 00:10:55;;;;;;;4.83;4.35;;;;;;;17.14;73.65;100765.02;1752785;81;21056;-85
2022/08/03 00:13:22;;;;;;;7.83;4.15;;;;;;;17.09;73.87;100760.94;1756645;80;21509;-86
2022/08/03 00:15:49;;;;;;;4.62;4.03;;;;;;;17.04;73.92;100763.00;1763719;81;21023;-85
2022/08/03 00:18:16;;;;;;;5.37;4.25;;;;;;;16.92;74.06;100756.63;1748759;81;21047;-85
2022/08/03 00:20:44;;;;;;;5.35;4.55;;;;;;;16.92;74.06;100756.63;1760792;81;21059;-86
2022/08/03 00:23:11;;;;;;;6.22;4.45;;;;;;;16.86;74.20;100763.13;1760708;80;22116;-86
2022/08/03 00:25:39;;;;;;;5.20;4.70;;;;;;;16.87;74.48;100762.17;1761133;81;21529;-86
2022/08/03 00:28:06;;;;;;;6.05;5.33;;;;;;;16.82;74.53;100756.32;1760729;81;21051;-86
2022/08/03 00:30:34;;;;;;;5.78;5.17;;;;;;;16.76;74.56;100758.41;1761220;80;21028;-86
2022/08/03 00:33:01;;;;;;;7.78;6.10;;;;;;;16.69;74.70;100753.47;1760661;80;21098;-86
2022/08/03 00:35:30;;;;;;;7.20;4.75;;;;;;;16.69;74.92;100758.77;1761113;80;21948;-85
2022/08/03 00:37:57;;;;;;;5.58;4.55;;;;;;;16.67;75.17;100755.34;1757344;80;21426;-86
2022/08/03 00:40:24;;;;;;;4.83;4.33;;;;;;;16.65;75.18;100750.60;1743501;81;21545;-85
2022/08/03 00:43:00;;;;;;;7.90;4.87;;;;;;;16.63;75.36;100755.63;1750882;80;21114;-85
2022/08/03 00:45:32;;;;;;;4.75;4.10;;;;;;;16.59;75.46;100758.89;1760982;81;22324;-86
2022/08/03 00:48:07;;;;;;;4.95;4.42;;;;;;;16.59;75.59;100758.05;1758680;81;21972;-85
2022/08/03 00:50:39;;;;;;;5.75;4.00;;;;;;;16.57;75.82;100758.16;1784472;79;21081;-84
2022/08/03 00:53:08;;;;;;;5.25;4.75;;;;;;;16.54;75.86;100754.33;1753242;80;21026;-85
2022/08/03 00:55:36;;;;;;;5.05;3.92;;;;;;;16.57;75.99;100752.86;1766536;79;21455;-85
2022/08/03 00:58:10;;;;;;;7.25;4.03;;;;;;;16.59;76.04;100743.02;1777220;79;21018;-86
2022/08/03 01:00:37;;;;;;;4.10;3.77;;;;;;;16.59;76.04;100743.02;1792844;79;21077;-86
2022/08/03 01:03:10;;;;;;;5.25;3.90;;;;;;;16.72;76.37;100749.33;1735298;81;21050;-86
2022/08/03 01:05:58;;;;;;;4.42;3.92;;;;;;;16.74;76.02;100745.28;1767728;79;21054;-82
2022/08/03 01:08:58;;;;;;;7.47;4.12;;;;;;;16.77;76.51;100742.48;1743903;81;20997;-85
2022/08/03 01:11:39;;;;;;;5.92;3.90;;;;;;;16.83;76.56;100742.61;1730482;81;20998;-86
2022/08/03 01:14:17;;;;;;;6.12;4.25;;;;;;;16.87;76.60;100741.47;1744472;81;21532;-85
2022/08/03 01:17:14;;;;;;;4.75;4.20;;;;;;;16.96;76.84;100742.28;1754526;81;21015;-84
2022/08/03 01:19:52;;;;;;;7.83;3.87;;;;;;;16.96;76.84;100742.28;1759623;80;21026;-85
2022/08/03 01:22:50;;;;;;;6.00;3.80;;;;;;;17.01;76.67;100733.58;1758711;81;21497;-86
2022/08/03 01:25:44;;;;;;;6.62;3.27;;;;;;;17.08;76.52;100734.94;1745904;81;21043;-86
2022/08/03 01:29:07;;;;;;;4.65;3.35;;;;;;;17.16;76.43;100735.81;1738901;81;21128;-86
2022/08/03 01:31:43;;;;;;;6.10;3.87;;;;;;;17.27;76.23;100737.35;1756362;81;21564;-86
2022/08/03 01:34:16;;;;;;;5.92;3.85;;;;;;;17.40;76.16;100728.17;1751396;81;21066;-88
2022/08/03 01:36:49;;;;;;;5.35;3.77;;;;;;;17.54;75.87;100731.31;1758950;81;21000;-88
2022/08/03 01:39:18;;;;;;;8.18;3.70;;;;;;;17.66;75.58;100732.39;1758064;81;21073;-88
2022/08/03 01:41:58;;;;;;;5.25;3.67;;;;;;;17.76;75.31;100730.41;1744361;81;21556;-88
2022/08/03 01:44:29;;;;;;;5.78;3.67;;;;;;;17.82;75.19;100726.55;1758454;81;21336;-88
2022/08/03 01:47:02;;;;;;;3.87;3.42;;;;;;;17.88;75.20;100726.17;1758701;81;21101;-88
2022/08/03 01:49:35;;;;;;;6.33;3.20;;;;;;;17.92;75.10;100725.02;1758598;81;21491;-88
2022/08/03 01:52:05;;;;;;;4.17;3.42;;;;;;;17.96;74.92;100720.39;1765728;81;21018;-85
2022/08/03 01:54:38;;;;;;;5.33;3.50;;;;;;;18.03;74.83;100724.34;1758526;81;21130;-86
2022/08/03 01:57:07;;;;;;;5.22;3.40;;;;;;;18.08;74.64;100716.95;1758308;81;20988;-86
2022/08/03 01:59:36;;;;;;;;;;;;;;;18.13;74.44;100716.19;1761141;81;21011;-86
2022/08/03 02:02:06;;;;;;;6.80;3.20;;;;;;;18.14;74.20;100711.25;1765391;81;20190;-86
2022/08/03 02:04:37;;;;;;;4.42;3.67;;;;;;;18.17;74.03;100711.05;1758616;81;21054;-86
2022/08/03 02:07:07;;;;;;;6.25;3.72;;;;;;;18.18;73.90;100710.12;1758567;81;21914;-86
2022/08/03 02:09:39;;;;;;;4.65;3.37;;;;;;;18.20;73.72;100705.55;1758490;81;21050;-86
2022/08/03 02:12:10;;;;;;;3.80;3.40;;;;;;;18.24;73.64;100711.53;1758708;81;21042;-86
2022/08/03 02:14:42;;;;;;;4.47;3.20;;;;;;;18.28;73.43;100706.39;1751829;81;21594;-87
2022/08/03 02:17:11;;;;;;;4.72;3.58;;;;;;;18.31;73.34;100704.86;1737428;81;21103;-86
2022/08/03 02:19:43;;;;;;;6.10;3.30;;;;;;;18.35;73.16;100699.75;1747020;81;21462;-86
2022/08/03 02:22:14;;;;;;;4.10;2.98;;;;;;;18.39;72.95;100698.58;1747000;80;21049;-86
2022/08/03 02:24:43;;;;;;;4.75;3.35;;;;;;;18.42;72.67;100701.03;1737638;81;21088;-86
2022/08/03 02:27:19;;;;;;;4.08;2.98;;;;;;;18.43;72.47;100696.61;1737213;81;21590;-87
2022/08/03 02:29:53;;;;;;;4.75;3.20;;;;;;;18.44;72.22;100700.47;1759137;81;21058;-86
2022/08/03 02:32:26;;;;;;;4.22;2.98;;;;;;;18.45;72.04;100700.83;1767384;80;21123;-87
2022/08/03 02:34:57;;;;;;;7.30;3.45;;;;;;;18.44;71.93;100699.14;1751918;81;21003;-86
2022/08/03 02:37:29;;;;;;;4.47;3.45;;;;;;;18.45;71.79;100699.98;1788904;80;21049;-87
2022/08/03 02:40:01;;;;;;;5.62;3.40;;;;;;;18.44;71.78;100705.78;1780508;80;21031;-87
2022/08/03 02:42:32;;;;;;;4.90;3.75;;;;;;;18.45;71.69;100701.31;1743748;81;21003;-86
2022/08/03 02:45:04;;;;;;;3.50;3.20;;;;;;;18.45;71.64;100706.14;1774278;80;21126;-87
2022/08/03 02:47:36;;;;;;;5.62;3.45;;;;;;;18.44;71.62;100699.14;1743080;81;21055;-86
2022/08/03 02:50:11;;;;;;;6.58;3.10;;;;;;;18.44;71.41;100698.30;1775863;80;21543;-86
2022/08/03 02:52:41;;;;;;;4.50;3.25;;;;;;;18.45;71.39;100703.97;1758435;81;21007;-85
2022/08/03 02:55:14;;;;;;;3.72;3.27;;;;;;;18.43;71.28;100706.73;1766676;80;21471;-86
2022/08/03 02:57:44;;;;;;;3.42;3.12;;;;;;;18.42;71.13;100703.69;1779595;80;21087;-86
2022/08/03 03:00:12;;;;;;;;;;;;;;;18.42;71.16;100711.66;1748176;81;22254;-87
2022/08/03 03:02:41;;;;;;;5.33;3.27;;;;;;;18.41;71.02;100707.30;1741681;81;20460;-86
2022/08/03 03:05:12;;;;;;;5.80;3.65;;;;;;;18.40;71.04;100710.05;1743124;81;20917;-86
2022/08/03 03:07:42;;;;;;;5.12;3.35;;;;;;;18.39;71.25;100714.98;1731869;81;21305;-86
2022/08/03 03:10:10;;;;;;;5.70;3.20;;;;;;;18.37;71.30;100716.40;1744701;81;21115;-86
2022/08/03 03:12:39;;;;;;;3.75;3.42;;;;;;;18.35;71.19;100714.34;1770705;80;21099;-86
2022/08/03 03:15:08;;;;;;;5.92;3.85;;;;;;;18.32;71.19;100706.58;1767057;80;21025;-85
2022/08/03 03:17:38;;;;;;;4.37;3.50;;;;;;;18.33;71.34;100712.73;1776522;80;21011;-85
2022/08/03 03:20:07;;;;;;;6.50;3.67;;;;;;;18.30;71.18;100707.63;1740521;81;21055;-85
2022/08/03 03:22:36;;;;;;;6.87;3.60;;;;;;;18.30;71.25;100706.30;1750474;81;26726;-86
2022/08/03 03:25:06;;;;;;;5.33;3.47;;;;;;;18.27;71.34;100708.67;1750389;81;21004;-85
2022/08/03 03:27:33;;;;;;;5.37;3.45;;;;;;;18.24;71.12;100712.38;1750665;81;21525;-85
2022/08/03 03:30:02;;;;;;;5.03;3.17;;;;;;;18.23;71.13;100709.80;1750378;81;21074;-86
2022/08/03 03:32:31;;;;;;;4.10;3.45;;;;;;;18.22;71.08;100713.42;1750693;81;20992;-85
2022/08/03 03:34:59;;;;;;;4.50;3.55;;;;;;;18.19;71.17;100714.95;1734423;81;21096;-86
2022/08/03 03:37:26;;;;;;;10.00;3.62;;;;;;;18.14;71.08;100715.23;1739092;81;21486;-85
2022/08/03 03:39:56;;;;;;;5.47;3.55;;;;;;;18.15;71.03;100717.40;1762081;80;21133;-85
2022/08/03 03:42:25;;;;;;;4.53;3.83;;;;;;;18.13;71.00;100722.82;1771834;80;21046;-86
2022/08/03 03:44:52;;;;;;;4.25;3.70;;;;;;;18.12;70.96;100722.91;1748309;81;21066;-85
2022/08/03 03:47:19;;;;;;;4.07;3.67;;;;;;;18.09;70.92;100721.30;1750578;81;21822;-85
2022/08/03 03:49:47;;;;;;;4.62;3.75;;;;;;;18.06;71.02;100728.13;1750235;81;21075;-87
2022/08/03 03:52:15;;;;;;;5.00;3.40;;;;;;;18.03;71.07;100719.03;1759278;81;21151;-87
2022/08/03 03:54:44;;;;;;;4.70;3.62;;;;;;;17.99;70.97;100725.02;1750291;81;21063;-86
2022/08/03 03:57:11;;;;;;;5.50;4.03;;;;;;;17.96;71.18;100725.22;1750662;81;21517;-86
2022/08/03 03:59:41;;;;;;;5.58;3.60;;;;;;;17.95;71.17;100726.14;1750372;81;21100;-85
2022/08/03 04:02:10;;;;;;;4.08;3.40;;;;;;;17.97;71.36;100731.36;1751881;81;21031;-86
2022/08/03 04:13:11;;;;;;;3.90;3.50;;;;;;;17.89;71.39;100734.97;1747001;81;21844;-85
2022/08/03 04:15:40;;;;;;;5.75;3.72;;;;;;;17.89;71.50;100735.81;1742476;81;21040;-85
2022/08/03 04:18:11;;;;;;;4.40;4.00;;;;;;;17.88;71.46;100735.93;1737796;81;21016;-85
2022/08/03 04:20:39;;;;;;;5.72;4.20;;;;;;;17.86;71.48;100739.98;1737750;81;21530;-85
2022/08/03 04:23:08;;;;;;;4.62;3.60;;;;;;;17.87;71.59;100744.33;1776192;80;21683;-86
2022/08/03 04:25:38;;;;;;;4.92;3.42;;;;;;;17.90;71.71;100744.14;1744693;81;21128;-85
2022/08/03 04:28:07;;;;;;;5.33;4.12;;;;;;;17.93;71.88;100746.63;1753775;80;21043;-85
2022/08/03 04:30:37;;;;;;;4.87;3.63;;;;;;;17.98;71.82;100743.66;1763782;80;21507;-86
2022/08/03 04:33:07;;;;;;;3.90;3.50;;;;;;;18.00;71.93;100741.30;1791300;80;21552;-86
2022/08/03 04:35:35;;;;;;;5.35;3.60;;;;;;;18.07;71.96;100744.44;1745337;80;21073;-85
2022/08/03 04:38:06;;;;;;;4.58;3.65;;;;;;;18.13;72.03;100739.22;1735840;81;21111;-86
2022/08/03 04:40:36;;;;;;;4.65;3.77;;;;;;;18.19;72.04;100741.48;1771016;80;21066;-85
2022/08/03 04:43:05;;;;;;;4.50;3.67;;;;;;;18.24;72.07;100743.38;1749047;81;21786;-85
2022/08/03 04:45:32;;;;;;;5.00;3.90;;;;;;;18.28;72.03;100744.38;1781732;80;22394;-87
2022/08/03 04:48:00;;;;;;;3.58;3.25;;;;;;;18.36;72.10;100750.53;1763511;80;21587;-87
2022/08/03 04:50:27;;;;;;;4.90;3.77;;;;;;;18.41;71.93;100748.44;1740756;81;21960;-87
2022/08/03 04:53:05;;;;;;;6.08;3.90;;;;;;;18.45;71.84;100748.61;1756729;81;21271;-87
2022/08/03 04:55:35;;;;;;;6.03;4.10;;;;;;;18.47;71.89;100748.04;1761719;80;21520;-87
2022/08/03 04:58:03;;;;;;;6.47;4.22;;;;;;;18.50;71.79;100751.82;1731491;81;25507;-87
2022/08/03 05:00:31;;;;;;;4.25;3.55;;;;;;;18.53;71.77;100749.92;1734653;81;21033;-87
2022/08/03 05:02:58;;;;;;;6.10;3.80;;;;;;;18.56;71.76;100756.36;1773041;80;21116;-87
2022/08/03 05:05:25;;;;;;;6.12;3.77;;;;;;;18.57;71.78;100754.95;1746735;81;21039;-87
2022/08/03 05:07:52;;;;;;;5.72;4.00;;;;;;;18.58;71.64;100757.12;1782743;80;21092;-87
2022/08/03 05:10:19;;;;;;;6.55;3.65;;;;;;;18.60;71.62;100757.88;1765513;80;21038;-86
2022/08/03 05:12:50;;;;;;;4.10;3.70;;;;;;;18.60;71.62;100760.06;1745955;81;21013;-87
2022/08/03 05:15:17;;;;;;;4.78;4.10;;;;;;;18.64;71.65;100759.37;1731756;81;21579;-87
2022/08/03 05:17:44;;;;;;;7.15;3.72;;;;;;;18.64;71.74;100764.20;1750622;81;21521;-83
2022/08/03 05:20:11;;;;;;;6.55;3.72;;;;;;;18.66;71.69;100764.12;1770754;80;21035;-87
2022/08/03 05:22:39;;;;;;;4.20;3.77;;;;;;;18.67;71.70;100770.64;1748794;81;21027;-87
2022/08/03 05:25:07;;;;;;;4.42;3.77;;;;;;;18.68;71.50;100768.86;1782161;80;21044;-87
2022/08/03 05:27:34;;;;;;;5.47;3.87;;;;;;;18.67;71.62;100768.47;1761820;80;21955;-87
2022/08/03 05:30:03;;;;;;;3.60;3.30;;;;;;;18.67;71.52;100769.31;1747085;80;21114;-87
2022/08/03 05:32:30;;;;;;;4.72;3.35;;;;;;;18.68;71.47;100767.53;1745628;81;21611;-87
2022/08/03 05:34:57;;;;;;;5.33;3.87;;;;;;;18.69;71.62;100774.05;1762324;81;21008;-86
2022/08/03 05:37:24;;;;;;;4.37;3.60;;;;;;;18.71;71.65;100772.64;1743395;81;21297;-87
2022/08/03 05:39:51;;;;;;;5.75;4.12;;;;;;;18.72;71.70;100769.87;1746375;81;21881;-87
2022/08/03 05:42:18;;;;;;;5.67;3.80;;;;;;;18.76;71.79;100766.59;1747966;81;21021;-88
2022/08/03 05:44:45;;;;;;;6.55;3.60;;;;;;;18.80;71.91;100766.75;1753832;81;21596;-87
2022/08/03 05:47:12;;;;;;;4.75;3.98;;;;;;;18.88;71.92;100775.55;1772640;80;21562;-87
2022/08/03 05:49:40;;;;;;;5.10;3.80;;;;;;;18.92;71.76;100771.23;1746993;81;21105;-87
2022/08/03 05:52:07;;;;;;;6.15;3.67;;;;;;;18.99;71.81;100773.03;1784990;80;21135;-87
2022/08/03 05:54:35;;;;;;;4.65;3.20;;;;;;;19.05;71.84;100767.78;1741097;81;21066;-87
2022/08/03 05:57:02;;;;;;;5.17;3.83;;;;;;;19.13;71.83;100770.30;1763789;80;21300;-88
2022/08/03 05:59:29;;;;;;;3.67;3.27;;;;;;;19.21;71.88;100771.12;1730972;82;21549;-87
2022/08/03 06:01:56;;;;;;;5.12;3.45;;;;;;;19.27;71.88;100773.36;1746161;81;21106;-87
2022/08/03 06:04:23;;;;;;;5.67;3.37;;;;;;;19.35;71.91;100772.37;1731716;81;21113;-87
2022/08/03 06:06:50;;;;;;;3.42;3.12;;;;;;;19.44;71.87;100772.22;1731836;81;21037;-87
2022/08/03 06:09:17;;;;;;;4.53;3.22;;;;;;;19.52;71.84;100767.23;1736664;81;21007;-87
2022/08/03 06:11:44;;;;;;;4.15;3.08;;;;;;;19.62;71.84;100767.46;1770228;80;21062;-87
2022/08/03 06:14:11;;;;;;;4.40;3.80;;;;;;;19.72;71.67;100767.69;1749541;81;21019;-87
2022/08/03 06:16:39;;;;;;;4.92;3.40;;;;;;;19.82;71.57;100767.43;1771243;80;21115;-87
2022/08/03 06:19:06;;;;;;;6.53;3.25;;;;;;;19.91;71.46;100765.45;1756571;81;21342;-87
2022/08/03 06:21:33;;;;;;;5.58;3.58;;;;;;;20.01;71.37;100767.84;1755268;80;21052;-87
2022/08/03 06:23:59;;;;;;;4.37;3.42;;;;;;;20.10;71.27;100766.33;1749910;81;21114;-85
2022/08/03 06:26:27;;;;;;;4.53;3.40;;;;;;;20.20;71.16;100770.50;1757417;81;21051;-85
2022/08/03 06:28:55;;;;;;;3.90;3.15;;;;;;;20.31;71.05;100773.24;1753840;81;21113;-87
2022/08/03 06:31:25;;;;;;;4.22;3.25;;;;;;;20.41;71.00;100769.45;1755910;81;21043;-84
2022/08/03 06:33:52;;;;;;;6.85;3.30;;;;;;;20.52;71.20;100774.00;1766106;80;21047;-82
2022/08/03 06:36:19;;;;;;;4.33;3.47;;;;;;;20.62;71.01;100778.58;1758986;81;21051;-83
2022/08/03 06:38:46;;;;;;;3.95;3.20;;;;;;;20.69;70.99;100777.16;1774032;80;21520;-86
2022/08/03 06:41:13;;;;;;;6.40;3.42;;;;;;;20.77;70.88;100776.59;1754861;81;21946;-86
2022/08/03 06:43:41;;;;;;;3.85;3.12;;;;;;;20.85;70.79;100772.88;1755279;81;20928;-82
2022/08/03 06:46:09;;;;;;;3.92;3.40;;;;;;;20.92;70.57;100775.92;1756735;80;21078;-84
2022/08/03 06:48:36;;;;;;;5.05;2.80;;;;;;;21.02;70.53;100780.10;1766413;80;20967;-82
2022/08/03 06:51:03;;;;;;;3.58;3.12;;;;;;;21.11;70.58;100786.91;1763218;80;21054;-82
2022/08/03 06:53:31;;;;;;;6.42;3.50;;;;;;;21.20;70.25;100779.19;1762374;80;22767;-81
2022/08/03 06:55:57;;;;;;;4.50;3.02;;;;;;;21.27;70.38;100777.28;1757632;81;21522;-83
2022/08/03 06:58:24;;;;;;;6.22;3.20;;;;;;;21.41;70.43;100783.42;1749045;81;21419;-83
2022/08/03 07:00:52;;;;;;;5.95;3.10;;;;;;;21.52;70.45;100782.95;1755376;81;21102;-81
2022/08/03 07:03:19;;;;;;;3.83;3.22;;;;;;;21.63;70.21;100782.13;1774602;78;21120;-87
2022/08/03 07:05:47;;;;;;;4.00;2.90;;;;;;;21.74;70.14;100786.64;1755358;81;21118;-83
2022/08/03 07:08:15;;;;;;;4.42;2.98;;;;;;;21.83;69.94;100783.23;1753979;81;21055;-79
2022/08/03 07:10:42;;;;;;;3.08;2.75;;;;;;;21.94;70.01;100780.58;1755364;81;21090;-84
2022/08/03 07:13:09;;;;;;;3.70;3.27;;;;;;;22.01;69.39;100779.13;1765211;80;21529;-88
2022/08/03 07:15:38;;;;;;;4.60;3.10;;;;;;;22.07;69.38;100775.13;1769460;80;21077;-82
2022/08/03 07:18:05;;;;;;;6.40;3.80;;;;;;;22.15;69.34;100774.03;1772518;80;21112;-83
2022/08/03 07:20:33;;;;;;;4.45;3.02;;;;;;;22.25;69.17;100772.83;1770856;80;21095;-83
2022/08/03 07:23:00;;;;;;;5.60;3.20;;;;;;;22.34;69.15;100774.78;1773017;78;21050;-83
2022/08/03 07:25:27;;;;;;;4.17;3.37;;;;;;;22.43;69.01;100770.02;1754542;81;21047;-85
2022/08/03 07:27:54;;;;;;;7.08;3.30;;;;;;;22.55;68.88;100766.84;1754575;81;21122;-81
2022/08/03 07:30:22;;;;;;;3.52;3.22;;;;;;;22.64;68.69;100768.77;1739817;80;21097;-83
2022/08/03 07:32:49;;;;;;;4.83;3.30;;;;;;;22.73;68.56;100770.33;1759302;80;21067;-82
2022/08/03 07:35:16;;;;;;;5.03;3.10;;;;;;;22.80;68.33;100773.69;1755611;81;21063;-84
2022/08/03 07:37:42;;;;;;;3.35;3.00;;;;;;;22.87;67.96;100771.38;1765113;80;21070;-82
2022/08/03 07:40:11;;;;;;;5.55;3.05;;;;;;;22.96;67.96;100771.12;1773536;80;38649;-81
2022/08/03 07:42:38;;;;;;;3.58;2.83;;;;;;;23.01;67.76;100774.27;1751954;81;21164;-81
2022/08/03 07:45:07;;;;;;;4.87;3.58;;;;;;;23.10;67.63;100766.80;1750837;81;21516;-82
2022/08/03 07:47:33;;;;;;;5.73;2.97;;;;;;;23.22;67.60;100766.25;1753353;81;21544;-84
2022/08/03 07:50:01;;;;;;;5.42;3.33;;;;;;;23.35;67.15;100770.43;1751308;81;21797;-83
2022/08/03 07:55:14;;;;;;;7.25;3.50;;;;;;;23.58;66.82;100772.50;1754058;81;22132;-83
2022/08/03 07:57:42;;;;;;;2.90;2.70;;;;;;;23.70;66.45;100772.42;1749425;81;21063;-84
2022/08/03 08:00:16;;;;;;;6.50;3.17;;;;;;;23.82;66.54;100769.55;1750293;81;21032;-83
2022/08/03 08:02:44;;;;;;;4.35;2.90;;;;;;;23.96;66.27;100768.34;1749343;81;21110;-83
2022/08/03 08:05:11;;;;;;;5.75;2.90;;;;;;;24.11;65.89;100771.98;1750849;81;21008;-82
2022/08/03 08:07:39;;;;;;;3.77;3.17;;;;;;;24.22;65.53;100770.08;1750053;81;21118;-86
2022/08/03 08:10:09;;;;;;;4.08;3.00;;;;;;;24.32;65.15;100764.73;1758014;81;20933;-86
2022/08/03 08:12:38;;;;;;;5.97;2.87;;;;;;;24.42;64.84;100764.77;1752637;81;21035;-86
2022/08/03 08:15:08;;;;;;;3.35;2.45;;;;;;;24.53;64.28;100762.50;1748440;81;22186;-85
2022/08/03 08:17:42;;;;;;;;;;;;;;;24.66;64.15;100769.77;1750665;81;21526;-86
2022/08/03 08:20:11;;;;;;;3.83;2.37;;;;;;;24.80;63.61;100763.98;1762529;81;21207;-86
2022/08/03 08:22:39;;;;;;;5.05;2.80;;;;;;;24.92;63.48;100764.22;1761862;81;21016;-87
2022/08/03 08:25:07;;;;;;;6.28;3.02;;;;;;;25.03;62.92;100760.56;1739128;81;21434;-87
2022/08/03 08:27:44;;;;;;;8.78;2.55;;;;;;;25.13;62.30;100765.90;1756701;79;21091;-87
2022/08/03 08:30:13;;;;;;;6.15;2.58;;;;;;;25.25;61.90;100763.47;1762988;80;21065;-87
2022/08/03 08:32:41;;;;;;;3.85;2.27;;;;;;;25.37;61.58;100762.81;1784852;80;21126;-86
2022/08/03 08:35:09;;;;;;;5.15;2.65;;;;;;;25.47;61.15;100762.31;1761985;81;21023;-86
2022/08/03 08:37:37;;;;;;;4.83;2.47;;;;;;;25.58;60.67;100758.11;1757794;81;21024;-87
2022/08/03 08:40:07;;;;;;;5.62;2.33;;;;;;;25.69;60.35;100761.12;1754264;81;21051;-87
2022/08/03 08:42:36;;;;;;;5.67;2.77;;;;;;;25.80;60.10;100761.41;1762224;81;21083;-85
2022/08/03 08:45:05;;;;;;;2.80;2.30;;;;;;;25.91;59.89;100759.95;1734790;81;21087;-87
2022/08/03 08:47:35;;;;;;;3.60;2.40;;;;;;;26.03;59.86;100756.06;1762137;81;21521;-87
2022/08/03 08:50:04;;;;;;;3.22;2.37;;;;;;;26.14;59.30;100760.40;1761917;81;21019;-87
2022/08/03 08:52:32;;;;;;;4.75;2.62;;;;;;;26.27;58.80;100761.38;1758845;81;21102;-87
2022/08/03 08:55:04;;;;;;;3.70;2.40;;;;;;;26.36;58.67;100755.12;1780830;80;21017;-87
2022/08/03 08:57:39;;;;;;;4.33;2.40;;;;;;;26.46;58.43;100751.85;1779151;80;21952;-87
2022/08/03 09:00:12;;;;;;;2.30;2.10;;;;;;;26.53;57.83;100757.52;1765829;80;21752;-86
2022/08/03 09:02:41;;;;;;;2.55;2.10;;;;;;;26.53;56.84;100748.62;1732034;81;21026;-85
2022/08/03 09:05:14;;;;;;;3.37;2.20;;;;;;;26.58;57.04;100750.36;1744827;81;21490;-87
2022/08/03 09:07:44;;;;;;;2.42;2.22;;;;;;;26.72;56.91;100749.82;1759028;80;21572;-86
2022/08/03 09:10:13;;;;;;;3.67;2.20;;;;;;;26.88;57.02;100746.41;1731318;81;21954;-83
2022/08/03 09:12:43;;;;;;;3.98;2.15;;;;;;;27.03;56.43;100749.42;1731811;81;21061;-85
2022/08/03 09:15:32;;;;;;;2.83;1.87;;;;;;;27.11;55.97;100738.22;1732249;81;21033;-86
2022/08/03 09:18:03;;;;;;;3.77;2.20;;;;;;;27.25;55.69;100740.89;1732501;81;21553;-86
2022/08/03 09:20:33;;;;;;;2.20;2.00;;;;;;;27.38;55.21;100742.30;1756398;81;21580;-86
2022/08/03 09:23:07;;;;;;;2.12;1.98;;;;;;;27.51;54.56;100743.58;1785094;80;21007;-80
2022/08/03 09:25:40;;;;;;;4.30;2.12;;;;;;;27.54;54.15;100743.77;1763030;81;21039;-79
2022/08/03 09:28:15;;;;;;;3.98;2.00;;;;;;;27.59;53.76;100738.24;1764971;80;21016;-85
2022/08/03 09:30:46;;;;;;;3.70;2.12;;;;;;;27.69;53.66;100741.34;1789212;80;21457;-79
2022/08/03 09:33:15;;;;;;;3.20;2.15;;;;;;;27.76;53.42;100739.69;1741032;81;21008;-79
2022/08/03 09:35:44;;;;;;;;;;;;;;;27.85;52.70;100740.59;1754459;81;21113;-84
2022/08/03 09:38:15;;;;;;;3.27;2.00;;;;;;;27.89;51.79;100735.24;1760780;81;20219;-83
2022/08/03 09:40:44;;;;;;;2.42;1.98;;;;;;;27.93;52.11;100729.86;1791597;80;21576;-85
2022/08/03 09:43:11;;;;;;;3.62;1.60;;;;;;;27.99;52.18;100737.29;1763104;81;21132;-83
2022/08/03 09:45:40;;;;;;;2.77;2.00;;;;;;;28.06;51.70;100731.61;1773795;80;21061;-86
2022/08/03 09:48:28;;;;;;;2.97;1.97;;;;;;;28.19;51.93;100735.20;1773620;80;21114;-85
2022/08/03 09:50:59;;;;;;;2.47;1.80;;;;;;;28.35;51.57;100735.73;1774078;80;20999;-89
2022/08/03 09:53:27;;;;;;;2.42;1.77;;;;;;;28.49;51.27;100724.84;1773368;78;21335;-86
2022/08/03 09:56:00;;;;;;;3.85;1.90;;;;;;;28.61;50.63;100725.72;1766564;81;20959;-79
2022/08/03 09:58:30;;;;;;;2.15;1.70;;;;;;;28.74;50.28;100724.38;1762584;81;21022;-79
2022/08/03 10:01:04;;;;;;;5.85;1.95;;;;;;;28.85;50.35;100726.27;1764120;81;21091;-87
2022/08/03 10:03:35;;;;;;;1.90;1.70;;;;;;;28.93;50.30;100725.91;1791507;80;21568;-79
2022/08/03 10:06:21;;;;;;;2.75;1.67;;;;;;;29.05;50.00;100720.55;1764323;81;21517;-86
2022/08/03 10:09:13;;;;;;;3.30;1.70;;;;;;;29.14;49.50;100723.58;1791050;80;21050;-83
2022/08/03 10:11:43;;;;;;;1.82;1.52;;;;;;;29.28;49.07;100721.53;1791121;80;21347;-83
2022/08/03 10:14:18;;;;;;;3.05;1.50;;;;;;;29.42;48.75;100724.04;1734073;79;21113;-80
2022/08/03 10:16:46;;;;;;;2.15;1.90;;;;;;;29.57;48.33;100724.20;1737939;81;20985;-79
2022/08/03 10:19:14;;;;;;;3.27;1.87;;;;;;;29.67;47.85;100719.97;1741124;81;21055;-80
2022/08/03 10:21:47;;;;;;;4.72;1.87;;;;;;;29.63;47.55;100720.83;1755619;81;21520;-77
2022/08/03 10:24:22;;;;;;;2.25;1.60;;;;;;;29.74;47.41;100727.20;1732236;81;21047;-79
2022/08/03 10:26:50;;;;;;;2.42;1.60;;;;;;;30.01;47.24;100724.58;1734135;81;21471;-79
2022/08/03 10:29:24;;;;;;;2.53;1.63;;;;;;;30.33;47.22;100716.50;1733249;81;20997;-86
2022/08/03 10:31:54;;;;;;;1.60;1.40;;;;;;;30.65;47.24;100714.06;1755053;80;21541;-82
2022/08/03 10:34:25;;;;;;;2.40;1.50;;;;;;;30.91;46.30;100711.55;1754646;80;21015;-79
2022/08/03 10:36:54;;;;;;;4.28;1.67;;;;;;;30.83;45.83;100711.10;1755031;80;21043;-81
2022/08/03 10:39:24;;;;;;;1.55;1.45;;;;;;;30.97;45.57;100699.99;1754724;80;21928;-79
2022/08/03 10:41:53;;;;;;;2.50;1.55;;;;;;;31.25;45.60;100703.77;1745608;81;20948;-78
2022/08/03 10:44:23;;;;;;;2.70;1.10;;;;;;;31.55;45.03;100705.19;1756376;80;21013;-84
2022/08/03 10:46:51;;;;;;;3.50;1.55;;;;;;;31.95;44.44;100698.97;1769632;80;21545;-78
2022/08/03 10:49:19;;;;;;;1.42;1.30;;;;;;;32.25;43.73;100698.91;1780692;80;21508;-84
2022/08/03 10:51:48;;;;;;;3.13;1.40;;;;;;;32.38;43.20;100703.13;1782451;80;21111;-87
2022/08/03 10:57:47;;;;;;;1.40;1.30;;;;;;;31.90;41.85;100700.02;1752594;81;21066;-84
2022/08/03 11:00:21;;;;;;;2.77;1.37;;;;;;;31.53;41.74;100699.94;1742859;82;21604;-86
2022/08/03 11:03:16;;;;;;;4.03;1.45;;;;;;;31.68;41.55;100703.19;1749878;82;21675;-86
2022/08/03 11:05:53;;;;;;;1.45;1.20;;;;;;;31.97;41.12;100694.20;1749998;82;21131;-78
2022/08/03 11:08:24;;;;;;;1.35;1.17;;;;;;;32.26;40.80;100693.31;1755777;81;20995;-83
2022/08/03 11:11:02;;;;;;;3.02;1.60;;;;;;;32.59;40.70;100692.33;1738679;82;21123;-78
2022/08/03 11:13:32;;;;;;;4.12;1.45;;;;;;;32.82;39.83;100696.70;1738620;82;21067;-92
2022/08/03 11:16:04;;;;;;;1.40;1.30;;;;;;;32.90;39.74;100692.50;1738624;82;21020;-79
2022/08/03 11:18:31;;;;;;;3.83;1.20;;;;;;;32.82;39.31;100695.34;1744571;82;21276;-77
2022/08/03 11:20:59;;;;;;;1.10;1.00;;;;;;;32.86;39.09;100689.84;1741710;82;21570;-87
2022/08/03 11:23:47;;;;;;;1.40;1.30;;;;;;;32.64;38.54;100693.92;1746663;82;21572;-76
2022/08/03 11:26:17;;;;;;;1.95;1.47;;;;;;;32.36;38.46;100679.41;1746649;82;21550;-85
2022/08/03 11:28:46;;;;;;;1.67;1.20;;;;;;;32.27;38.90;100681.41;1746560;82;21263;-76
2022/08/03 11:31:26;;;;;;;;;;;;;;;32.52;38.87;100682.44;1749183;82;21592;-77
2022/08/03 11:34:06;;;;;;;4.72;1.40;;;;;;;32.77;38.45;100666.06;1749808;81;20200;-83
2022/08/03 11:37:24;;;;;;;1.37;1.10;;;;;;;32.72;38.41;100672.59;1789187;80;20919;-77
2022/08/03 11:39:53;;;;;;;1.90;1.50;;;;;;;32.49;38.78;100673.33;1776632;80;21069;-78
2022/08/03 11:42:29;;;;;;;1.57;1.35;;;;;;;32.41;38.90;100670.19;1753795;80;21531;-78
2022/08/03 11:44:59;;;;;;;3.80;1.42;;;;;;;32.34;38.47;100672.84;1772639;80;21260;-79
2022/08/03 11:47:29;;;;;;;1.62;1.30;;;;;;;32.09;38.56;100675.56;1772643;80;21089;-84
2022/08/03 11:50:00;;;;;;;3.33;1.30;;;;;;;32.24;38.79;100668.24;1770331;80;21050;-80
2022/08/03 11:52:37;;;;;;;3.25;1.20;;;;;;;32.56;38.78;100662.00;1770688;80;21058;-92
2022/08/03 11:55:10;;;;;;;1.52;1.20;;;;;;;32.87;38.77;100658.95;1735215;81;21584;-79
2022/08/03 11:57:38;;;;;;;2.37;1.30;;;;;;;33.31;38.41;100668.67;1745380;81;21109;-88